Flight Track Log - Related Links

Times and Time Zones

All times are in EDT time to prevent confusion due to time zone crossing. See the N609RL flight status page for this flight to view local times or setup timezone preferences in your user account.

Time Position Orientation Groundspeed Altitude Reporting Facility
EDT Latitude Longitude Course Direction KTS MPH feet Rate Location/Type
Tue 06:04:50 PM 40.8481 -97.5161 126° Southeast 140 161 3,900  Level Minneapolis Center
Tue 06:05:52 PM 40.8114 -97.4844 147° Southeast 133 153 4,800 677 Climbing Minneapolis Center
Tue 06:06:54 PM 40.7800 -97.4569 146° Southeast 135 155 5,300 532 Climbing Minneapolis Center
Tue 06:07:56 PM 40.7561 -97.4169 128° Southeast 136 157 5,900 528 Climbing Minneapolis Center
Tue 06:08:59 PM 40.7342 -97.3747 124° Southeast 139 160 6,400 528 Climbing Minneapolis Center
Tue 06:10:00 PM 40.7257 -97.3185 126° Southeast  Level Estimated
Tue 06:10:01 PM 40.7106 -97.3325 126° Southeast 141 162 7,000  Level Minneapolis Center
Tue 06:11:03 PM 40.6861 -97.2900 127° Southeast 144 166 7,600 629 Climbing Minneapolis Center
Tue 06:12:05 PM 40.6619 -97.2489 128° Southeast 143 165 8,300 677 Climbing Minneapolis Center
Tue 06:13:07 PM 40.6394 -97.2086 126° Southeast 140 161 9,000 677 Climbing Minneapolis Center
Tue 06:14:09 PM 40.6133 -97.1583 124° Southeast 138 159 9,700 629 Climbing Minneapolis Center
Tue 06:15:11 PM 40.5894 -97.1169 127° Southeast 141 162 10,300 532 Climbing Minneapolis Center
Tue 06:16:13 PM 40.5667 -97.0744 125° Southeast 142 163 10,800 387 Climbing Minneapolis Center
Tue 06:17:15 PM 40.5419 -97.0306 127° Southeast 144 166 11,100 97 Climbing Minneapolis Center
Tue 06:18:17 PM 40.5136 -96.9800 126° Southeast 153 176 11,000  Descending Minneapolis Center
Tue 06:19:19 PM 40.4756 -96.9142 127° Southeast 169 194 11,100  Climbing Minneapolis Center
Tue 06:20:21 PM 40.4447 -96.8592 126° Southeast 178 205 11,000 -48 Descending Minneapolis Center
Tue 06:21:23 PM 40.4136 -96.8044 127° Southeast 183 211 11,000  Level Minneapolis Center
Tue 06:23:27 PM 40.3528 -96.6958 126° Southeast 185 213 11,000  Level Minneapolis Center
Tue 06:24:29 PM 40.3217 -96.6428 128° Southeast 185 213 11,000  Level Minneapolis Center
Tue 06:25:32 PM 40.2847 -96.5761 126° Southeast 186 214 11,000  Level Minneapolis Center
Tue 06:26:34 PM 40.2542 -96.5233 127° Southeast 185 213 11,000  Level Minneapolis Center
Tue 06:27:36 PM 40.2231 -96.4683 127° Southeast 186 214 11,000 48 Level Minneapolis Center
Tue 06:28:38 PM 40.1931 -96.4158 127° Southeast 183 211 11,100 48 Climbing Minneapolis Center
Tue 06:29:40 PM 40.1619 -96.3603 126° Southeast 186 214 11,100  Level Minneapolis Center
Tue 06:30:42 PM 40.1311 -96.3086 128° Southeast 183 211 11,100  Level Minneapolis Center
Tue 06:31:44 PM 40.0944 -96.2450 127° Southeast 183 211 11,100  Level Minneapolis Center
Tue 06:32:46 PM 40.0636 -96.1906 126° Southeast 184 212 11,100  Level Minneapolis Center
Tue 06:33:48 PM 40.0339 -96.1383 127° Southeast 183 211 11,100  Level Minneapolis Center
Tue 06:34:50 PM 40.0031 -96.0844 127° Southeast 183 211 11,100  Level Minneapolis Center
Tue 06:35:52 PM 39.9728 -96.0308 126° Southeast 183 211 11,100  Level Minneapolis Center
Tue 06:36:54 PM 39.9417 -95.9769 127° Southeast 185 213 11,100  Level Minneapolis Center
Tue 06:37:57 PM 39.9050 -95.9161 128° Southeast 182 209 11,100  Level Minneapolis Center
Tue 06:38:59 PM 39.8742 -95.8631 127° Southeast 183 211 11,100  Level Minneapolis Center
Tue 06:40:01 PM 39.8433 -95.8108 128° Southeast 183 211 11,100 -43 Level Minneapolis Center
Tue 06:41:18 PM 39.8017 -95.7386 127° Southeast 186 214 11,000 -43 Descending Kansas City Center
Tue 06:42:20 PM 39.7714 -95.6878 128° Southeast 186 214 11,000  Level Kansas City Center
Tue 06:43:22 PM 39.7367 -95.6286 127° Southeast 184 212 11,000  Level Kansas City Center
Tue 06:44:24 PM 39.7064 -95.5761 127° Southeast 188 216 11,000  Level Kansas City Center
Tue 06:45:26 PM 39.6750 -95.5247 128° Southeast 190 219 11,000  Level Kansas City Center
Tue 06:46:28 PM 39.6403 -95.4644 127° Southeast 187 215 11,000  Level Kansas City Center
Tue 06:47:30 PM 39.6108 -95.4131 127° Southeast 186 214 11,000  Level Kansas City Center
Tue 06:48:32 PM 39.5758 -95.3539 127° Southeast 185 213 11,000  Level Kansas City Center
Tue 06:49:34 PM 39.5453 -95.3044 129° Southeast 183 211 11,000  Level Kansas City Center
Tue 06:50:36 PM 39.5103 -95.2464 128° Southeast 183 211 11,000  Level Kansas City Center
Tue 06:51:38 PM 39.4800 -95.1958 128° Southeast 184 212 11,000  Level Kansas City Center
Tue 06:52:40 PM 39.4453 -95.1361 127° Southeast 185 213 11,000  Level Kansas City Center
Tue 06:53:42 PM 39.4144 -95.0850 128° Southeast 187 215 11,000  Level Kansas City Center
Tue 06:54:44 PM 39.3844 -95.0339 127° Southeast 187 215 11,000  Level Kansas City Center
Tue 06:55:46 PM 39.3483 -94.9742 128° Southeast 188 216 11,000  Level Kansas City Center
Tue 06:56:48 PM 39.3178 -94.9236 128° Southeast 186 214 11,000  Level Kansas City Center
Tue 06:57:50 PM 39.2822 -94.8631 127° Southeast 189 217 11,000  Level Kansas City Center
Tue 06:58:53 PM 39.2517 -94.8117 128° Southeast 188 216 11,000  Level Kansas City Center
Tue 06:59:54 PM 39.2150 -94.7519 128° Southeast 189 217 11,000  Level Kansas City Center
Tue 07:00:56 PM 39.1839 -94.7006 128° Southeast 190 219 11,000  Level Kansas City Center
Tue 07:01:59 PM 39.1475 -94.6411 128° Southeast 190 219 11,000  Level Kansas City Center
Tue 07:03:01 PM 39.1156 -94.5889 128° Southeast 193 222 11,000  Level Kansas City Center
Tue 07:04:03 PM 39.0789 -94.5281 128° Southeast 192 221 11,000  Level Kansas City Center
Tue 07:05:05 PM 39.0469 -94.4756 128° Southeast 196 226 11,000 -145 Level Kansas City Center
Tue 07:06:07 PM 39.0139 -94.4222 129° Southeast 200 230 10,700 -339 Descending Kansas City Center
Tue 07:07:09 PM 38.9742 -94.3553 127° Southeast 209 241 10,300 -435 Descending Kansas City Center
Tue 07:08:11 PM 38.9386 -94.3011 130° Southeast 208 239 9,800 -435 Descending Kansas City Center
Tue 07:09:13 PM 38.8997 -94.2375 128° Southeast 203 234 9,400 -290 Descending Kansas City Center
Tue 07:10:15 PM 38.8697 -94.1853 126° Southeast 191 220 9,200 -194 Descending Kansas City Center
Tue 07:11:17 PM 38.8325 -94.1258 129° Southeast 188 216 9,000 -242 Descending Kansas City Center
Tue 07:12:19 PM 38.8022 -94.0769 128° Southeast 186 214 8,700 -387 Descending Kansas City Center
Tue 07:13:21 PM 38.7656 -94.0214 130° Southeast 180 207 8,200 -435 Descending Kansas City Center
Tue 07:14:23 PM 38.7381 -93.9739 127° Southeast 173 199 7,800 -532 Descending Kansas City Center
Tue 07:15:25 PM 38.7053 -93.9214 129° Southeast 168 193 7,100 -581 Descending Kansas City Center
Tue 07:16:27 PM 38.6769 -93.8756 128° Southeast 170 196 6,600 -532 Descending Kansas City Center
Tue 07:17:29 PM 38.6444 -93.8211 127° Southeast 171 197 6,000 -581 Descending Kansas City Center
Tue 07:18:31 PM 38.6147 -93.7747 129° Southeast 175 201 5,400 -629 Descending Kansas City Center
Tue 07:19:33 PM 38.5814 -93.7194 128° Southeast 177 204 4,700 -629 Descending Kansas City Center
Tue 07:20:35 PM 38.5511 -93.6697 128° Southeast 177 204 4,100 -528 Descending Kansas City Center
Tue 07:21:38 PM 38.5189 -93.6228 131° Southeast 177 204 3,600 -532 Descending Kansas City Center
Tue 07:22:39 PM 38.4897 -93.5744 128° Southeast 174 200 3,000 -293 Descending Kansas City Center
Tue 07:23:41 PM 38.4619 -93.5283 128° Southeast 170 196 3,000  Level Kansas City Center
Tue 07:24:44 PM 38.4331 -93.4847 130° Southeast 162 186 3,000  Level Kansas City Center
Tue 07:26:00 PM 38.3921 -93.4265 132° Southeast  Level FlightAware Approximate
Tue 07:33:00 PM 38.3479 -93.3454 123° Southeast  Level Estimated
Tue 07:34:00 PM 38.3479 -93.3454 123° Southeast  Level Estimated
Tue 07:35:00 PM 38.3479 -93.3454 123° Southeast  Level Estimated

Login

Don't have an account? Register now (free) for customized features, flight alerts, and more!